Auburn Township, Ohio
Current Conditions -  °F | °C
As of 3:00 PM on Friday 19 Dec 2014 (Local Time) from KPOV Reporting Station
Overcast Overcast  
Wind Chill: 24°   Ceiling: 2500
Heat Index: 31°   Visibility: 10mi
Dew Point: 21°   Wind: 7mph
Humidity: 67%   Direction: 330°NNW
Pressure: 30.2"   Gusts: NA
Location:  41.2966°N, 81.2269°W
Report Text: KPOV 192000Z AUTO 33006KT 10SM OVC025 M01/M06 A3020 RMK AO2 T10071061
Loading
Personal Weather Stations






























Interactive Weather Map New forecast layout! Learn more

10-Day Weather Forecast

Advertisements
Track Severe Weather on mobile